Time;durP1;ratioP1;P1;durP2;ratioP2;P2;SDS_P1;SDS_P2;PMS_P1;PMS_P2;Temp;Humidity;BMP_temperature;BMP_pressure;BME280_temperature;BME280_humidity;BME280_pressure;Samples;Min_cycle;Max_cycle;Signal;HPM_P1;HPM_P2
2022/01/27 00:00:01;;;;;;;4.97;2.07;;;;;;;4.65;49.75;99795.09;5097278;28;20226;-84
2022/01/27 00:05:08;;;;;;;2.70;1.23;;;;;;;4.22;50.62;99802.75;5096906;28;20168;-84
2022/01/27 00:07:35;;;;;;;6.17;2.07;;;;;;;4.33;50.89;99807.75;5096857;28;20610;-85
2022/01/27 00:12:47;;;;;;;7.60;2.57;;;;;;;4.32;51.02;99811.25;5065384;28;20279;-84
2022/01/27 00:15:14;;;;;;;3.10;2.33;;;;;;;4.11;51.67;99809.88;5095717;28;20584;-83
2022/01/27 00:17:56;;;;;;;6.30;2.80;;;;;;;4.29;51.27;99804.38;5096342;28;20609;-84
2022/01/27 00:20:21;;;;;;;3.70;2.00;;;;;;;4.37;50.74;99813.75;5096621;28;20150;-83
2022/01/27 00:22:47;;;;;;;3.27;1.97;;;;;;;4.41;50.92;99805.03;5095323;28;20168;-83
2022/01/27 00:25:13;;;;;;;4.27;1.90;;;;;;;4.31;51.04;99812.13;5096221;28;20535;-84
2022/01/27 00:27:39;;;;;;;3.80;2.10;;;;;;;4.34;51.01;99806.88;5095219;28;20184;-83
2022/01/27 00:30:06;;;;;;;2.37;1.60;;;;;;;4.28;50.92;99807.84;5096099;28;20269;-85
2022/01/27 00:32:32;;;;;;;2.20;1.60;;;;;;;4.35;50.86;99804.25;5095988;28;20173;-84
2022/01/27 00:34:58;;;;;;;3.50;2.03;;;;;;;4.26;51.16;99809.63;5096334;28;20652;-84
2022/01/27 00:37:24;;;;;;;4.77;2.63;;;;;;;4.12;51.76;99806.38;5094959;28;20187;-84
2022/01/27 00:39:50;;;;;;;6.23;2.53;;;;;;;4.25;51.17;99805.28;5096531;28;20169;-84
2022/01/27 00:42:15;;;;;;;12.07;1.97;;;;;;;4.23;51.58;99808.78;5095794;28;20181;-84
2022/01/27 00:44:41;;;;;;;2.43;1.60;;;;;;;4.26;51.81;99809.63;5095826;28;20290;-86
2022/01/27 00:47:07;;;;;;;5.63;2.53;;;;;;;4.23;52.00;99809.66;5094833;28;20663;-83
2022/01/27 00:49:32;;;;;;;2.17;0.97;;;;;;;4.01;52.24;99808.28;5095622;28;20341;-84
2022/01/27 00:52:00;;;;;;;7.43;2.07;;;;;;;3.87;53.38;99810.25;5095244;28;20333;-84
2022/01/27 00:54:28;;;;;;;5.07;1.77;;;;;;;4.09;52.34;99806.41;5095688;28;20177;-86
2022/01/27 00:59:59;;;;;;;7.10;2.43;;;;;;;4.25;51.81;99800.09;5072715;28;20188;-84
2022/01/27 01:05:03;;;;;;;6.87;1.97;;;;;;;3.91;53.51;99801.50;5095799;28;20177;-85
2022/01/27 01:07:33;;;;;;;7.03;2.97;;;;;;;4.10;52.87;99797.78;5095475;28;20160;-84
2022/01/27 01:15:31;;;;;;;2.80;1.97;;;;;;;4.09;52.82;99790.00;5095319;28;20168;-85
2022/01/27 01:33:56;;;;;;;4.43;2.33;;;;;;;4.27;53.26;99785.34;5094907;28;20597;-84
2022/01/27 01:36:35;;;;;;;6.60;2.73;;;;;;;4.18;53.74;99790.72;5094886;28;20160;-84
2022/01/27 01:39:00;;;;;;;6.30;3.17;;;;;;;4.12;53.96;99785.63;5095727;28;20225;-84
2022/01/27 01:41:26;;;;;;;7.83;3.33;;;;;;;4.15;54.16;99793.34;5093939;28;20594;-84
2022/01/27 01:43:51;;;;;;;3.53;2.87;;;;;;;4.22;53.72;99776.78;5093729;28;20176;-84
2022/01/27 01:46:16;;;;;;;4.40;2.50;;;;;;;4.06;54.07;99790.91;5093659;28;20168;-85
2022/01/27 01:48:42;;;;;;;4.30;2.80;;;;;;;3.91;54.71;99778.19;5094543;28;20738;-85
2022/01/27 01:51:07;;;;;;;4.63;2.87;;;;;;;4.08;53.56;99772.72;5094586;28;20179;-86
2022/01/27 01:53:33;;;;;;;3.13;1.57;;;;;;;4.16;53.99;99769.13;5093552;28;20204;-84
2022/01/27 01:55:58;;;;;;;7.77;3.03;;;;;;;4.10;53.58;99776.16;5094479;28;20172;-84
2022/01/27 01:58:24;;;;;;;3.33;1.70;;;;;;;3.87;54.38;99770.47;5093747;28;20653;-84
2022/01/27 02:00:49;;;;;;;3.63;2.37;;;;;;;4.01;54.05;99766.78;5094387;28;20225;-85
2022/01/27 02:03:15;;;;;;;5.23;3.07;;;;;;;4.00;54.54;99764.22;5093037;28;20229;-84
2022/01/27 02:05:46;;;;;;;2.83;1.17;;;;;;;3.90;54.73;99762.66;5094819;28;20165;-84
2022/01/27 02:19:21;;;;;;;6.00;2.60;;;;;;;3.73;55.23;99755.13;5094922;28;20190;-84
2022/01/27 02:21:55;;;;;;;10.07;2.30;;;;;;;3.89;55.05;99759.19;5092951;28;20259;-83
2022/01/27 02:24:23;;;;;;;6.97;2.80;;;;;;;3.79;55.50;99760.22;5094509;28;20513;-84
2022/01/27 02:26:50;;;;;;;3.30;1.90;;;;;;;3.84;55.32;99762.75;5094219;28;20246;-84
2022/01/27 02:29:17;;;;;;;2.70;1.50;;;;;;;3.87;54.95;99755.78;5093101;28;20200;-84
2022/01/27 02:31:44;;;;;;;4.27;2.03;;;;;;;3.74;55.49;99756.84;5093406;28;20172;-83
2022/01/27 02:34:09;;;;;;;8.17;2.60;;;;;;;4.01;54.54;99763.34;5092806;28;20196;-84
2022/01/27 02:36:35;;;;;;;5.70;2.60;;;;;;;4.16;53.68;99766.53;5094306;28;20215;-84
2022/01/27 02:39:06;;;;;;;5.47;2.57;;;;;;;4.02;54.51;99757.25;5092757;28;20293;-84
2022/01/27 02:41:37;;;;;;;4.57;2.13;;;;;;;3.99;54.79;99763.34;5093536;28;20633;-84
2022/01/27 02:44:03;;;;;;;6.17;2.40;;;;;;;4.05;54.50;99765.00;5093948;28;20157;-83
2022/01/27 02:46:39;;;;;;;6.40;2.93;;;;;;;4.29;53.87;99757.66;5093614;28;20251;-85
2022/01/27 02:49:05;;;;;;;14.33;2.97;;;;;;;4.10;54.67;99765.78;5092536;28;20245;-84
2022/01/27 02:51:30;;;;;;;5.40;2.03;;;;;;;4.14;54.41;99760.50;5093525;28;20239;-84
2022/01/27 02:53:57;;;;;;;6.07;2.57;;;;;;;4.10;55.01;99758.84;5092555;28;20177;-84
2022/01/27 02:56:22;;;;;;;5.23;2.67;;;;;;;3.94;55.03;99762.56;5093448;28;20168;-85
2022/01/27 02:58:48;;;;;;;4.20;1.10;;;;;;;4.03;55.35;99754.66;5093409;28;20179;-84
2022/01/27 03:01:18;;;;;;;6.73;2.17;;;;;;;4.37;54.37;99759.25;5093940;28;20254;-84
2022/01/27 03:03:43;;;;;;;2.37;1.30;;;;;;;4.24;54.86;99758.63;5093290;28;20192;-83
2022/01/27 03:06:09;;;;;;;10.43;3.23;;;;;;;4.46;54.35;99759.94;5092357;28;20614;-84
2022/01/27 03:08:34;;;;;;;5.43;2.57;;;;;;;4.24;54.62;99767.28;5092235;28;20196;-84
2022/01/27 03:11:06;;;;;;;2.37;1.57;;;;;;;4.32;54.44;99759.34;5092342;28;20253;-86
2022/01/27 03:13:32;;;;;;;2.97;1.37;;;;;;;4.22;55.31;99760.38;5091655;28;20263;-84
2022/01/27 03:15:57;;;;;;;3.17;1.53;;;;;;;4.31;55.33;99753.31;5093506;28;20172;-84
2022/01/27 03:18:23;;;;;;;2.53;1.83;;;;;;;4.20;55.03;99755.22;5092164;28;20230;-83
2022/01/27 03:20:48;;;;;;;7.97;2.27;;;;;;;4.30;55.19;99759.34;5093153;28;20164;-84
2022/01/27 03:23:13;;;;;;;8.77;2.73;;;;;;;4.35;54.99;99762.72;5093392;28;20176;-84
2022/01/27 03:25:39;;;;;;;4.40;2.67;;;;;;;4.55;53.99;99758.94;5092148;28;20617;-84
2022/01/27 03:28:07;;;;;;;6.77;2.53;;;;;;;4.38;54.85;99767.00;5093393;28;20179;-84
2022/01/27 03:30:32;;;;;;;5.83;1.53;;;;;;;4.27;55.02;99759.41;5093320;28;20313;-85
2022/01/27 03:32:58;;;;;;;2.07;1.27;;;;;;;4.20;55.20;99751.75;5092109;28;20279;-84
2022/01/27 03:35:23;;;;;;;1.00;0.83;;;;;;;4.17;55.38;99763.03;5092620;28;20180;-84
2022/01/27 03:37:49;;;;;;;6.03;2.03;;;;;;;4.25;55.26;99758.59;5092053;28;20176;-84
2022/01/27 03:40:14;;;;;;;2.80;1.83;;;;;;;4.42;54.37;99758.31;5092882;28;20169;-84
2022/01/27 03:42:49;;;;;;;1.33;0.80;;;;;;;4.44;54.05;99756.53;5092308;28;20180;-85
2022/01/27 03:45:15;;;;;;;2.10;1.87;;;;;;;4.17;55.07;99744.88;5093277;28;20153;-86
2022/01/27 03:47:40;;;;;;;1.20;0.90;;;;;;;3.75;56.71;99760.31;5093542;28;20172;-85
2022/01/27 03:50:06;;;;;;;7.40;2.37;;;;;;;3.87;56.95;99760.97;5092785;28;20216;-85
2022/01/27 03:52:31;;;;;;;3.10;1.63;;;;;;;4.14;55.44;99767.47;5091937;28;20187;-85
2022/01/27 03:54:57;;;;;;;12.93;1.93;;;;;;;4.23;55.50;99760.34;5093133;28;20180;-86
2022/01/27 03:57:22;;;;;;;3.73;2.50;;;;;;;4.09;56.22;99758.84;5092948;28;20177;-83
2022/01/27 03:59:48;;;;;;;4.30;2.20;;;;;;;3.98;56.44;99760.81;5092428;28;20169;-85
2022/01/27 04:02:13;;;;;;;2.93;1.90;;;;;;;4.06;56.17;99754.59;5092145;28;20242;-85
2022/01/27 04:04:38;;;;;;;5.50;2.27;;;;;;;3.98;56.24;99751.28;5092328;28;20181;-85
2022/01/27 04:07:04;;;;;;;3.47;2.23;;;;;;;4.05;56.11;99762.41;5092088;28;20176;-83
2022/01/27 04:09:30;;;;;;;6.70;2.13;;;;;;;4.05;56.23;99767.59;5092630;28;20719;-84
2022/01/27 04:11:55;;;;;;;6.30;2.43;;;;;;;4.16;56.11;99763.94;5091746;28;20178;-84
2022/01/27 04:14:21;;;;;;;6.20;2.17;;;;;;;4.03;56.55;99775.41;5092938;28;20592;-84
2022/01/27 04:16:46;;;;;;;10.30;2.67;;;;;;;4.20;56.09;99760.41;5092646;28;20169;-83
2022/01/27 04:19:12;;;;;;;2.57;1.03;;;;;;;4.13;56.48;99761.41;5091633;28;20263;-84
2022/01/27 04:21:37;;;;;;;7.43;2.77;;;;;;;4.13;56.94;99765.72;5092877;28;20273;-84
2022/01/27 04:24:04;;;;;;;3.13;2.03;;;;;;;3.84;58.10;99768.78;5091767;28;20271;-84
2022/01/27 04:26:45;;;;;;;2.97;2.00;;;;;;;4.10;57.48;99766.63;5094893;28;20172;-84
2022/01/27 04:29:12;;;;;;;4.33;1.87;;;;;;;4.12;57.75;99780.44;5095152;28;20275;-84
2022/01/27 04:31:40;;;;;;;6.73;2.23;;;;;;;3.99;57.43;99773.72;5096155;28;20172;-86
2022/01/27 04:34:05;;;;;;;2.57;1.70;;;;;;;4.02;57.69;99778.88;5096060;28;20589;-84
2022/01/27 04:36:33;;;;;;;4.27;2.13;;;;;;;3.94;57.75;99770.34;5095149;28;20168;-84
2022/01/27 04:39:19;;;;;;;4.27;2.57;;;;;;;4.14;57.81;99785.63;5095992;28;20260;-85
2022/01/27 04:44:43;;;;;;;2.83;1.77;;;;;;;4.18;57.06;99788.13;5093687;28;20657;-84
2022/01/27 04:47:15;;;;;;;6.07;1.80;;;;;;;4.16;57.21;99786.44;5094943;28;20187;-86
2022/01/27 04:49:41;;;;;;;6.43;3.00;;;;;;;4.09;57.57;99790.00;5095782;28;20187;-85
2022/01/27 04:52:08;;;;;;;5.07;2.47;;;;;;;4.14;57.54;99790.81;5095791;28;20245;-87
2022/01/27 04:54:41;;;;;;;4.83;2.30;;;;;;;4.16;57.42;99799.41;5096239;28;20247;-85
2022/01/27 04:57:07;;;;;;;3.10;1.43;;;;;;;4.33;56.75;99793.06;5096529;28;20149;-83
2022/01/27 04:59:38;;;;;;;4.07;2.10;;;;;;;4.30;56.96;99805.22;5094807;28;20226;-86
2022/01/27 05:02:09;;;;;;;2.77;1.50;;;;;;;4.10;57.13;99804.69;5094642;28;20242;-84
2022/01/27 05:04:41;;;;;;;4.10;2.53;;;;;;;4.24;56.61;99810.53;5094629;28;20610;-84
2022/01/27 05:07:06;;;;;;;3.77;2.17;;;;;;;4.25;57.11;99813.06;5094568;28;20168;-84
2022/01/27 05:09:32;;;;;;;4.73;2.03;;;;;;;4.53;55.83;99810.88;5095355;28;20208;-84
2022/01/27 05:12:11;;;;;;;6.97;2.63;;;;;;;4.20;56.57;99809.69;5094379;28;20176;-85
2022/01/27 05:14:37;;;;;;;4.23;1.97;;;;;;;4.47;56.45;99823.09;5095365;28;20159;-84
2022/01/27 05:17:03;;;;;;;10.07;2.97;;;;;;;4.27;57.39;99821.69;5095314;28;20525;-84
2022/01/27 05:19:28;;;;;;;4.83;2.90;;;;;;;4.19;57.76;99815.75;5094598;28;20207;-84
2022/01/27 05:21:54;;;;;;;5.07;2.93;;;;;;;4.39;57.15;99827.56;5095400;28;20196;-86
2022/01/27 05:24:19;;;;;;;5.73;2.53;;;;;;;4.19;57.26;99826.13;5094498;28;20173;-85
2022/01/27 05:26:45;;;;;;;6.43;2.40;;;;;;;4.26;57.65;99832.09;5095661;28;20172;-86
2022/01/27 05:29:11;;;;;;;10.37;3.03;;;;;;;4.25;57.59;99833.84;5094978;28;20201;-85
2022/01/27 05:31:37;;;;;;;5.80;3.30;;;;;;;4.31;57.72;99838.94;5094953;28;20550;-85
2022/01/27 05:34:04;;;;;;;4.57;2.47;;;;;;;4.50;56.75;99843.81;5095442;28;20225;-87
2022/01/27 05:36:30;;;;;;;14.37;3.27;;;;;;;4.57;57.08;99840.22;5093321;28;20176;-84
2022/01/27 05:38:56;;;;;;;6.70;1.87;;;;;;;4.42;57.52;99840.50;5094692;28;20584;-85
2022/01/27 05:41:22;;;;;;;11.03;3.17;;;;;;;4.48;57.56;99840.41;5095026;28;20184;-85
2022/01/27 05:43:47;;;;;;;3.07;2.60;;;;;;;4.42;57.64;99845.69;5093747;28;20180;-88
2022/01/27 05:46:13;;;;;;;6.80;3.27;;;;;;;4.59;57.43;99843.66;5094667;28;20622;-85
2022/01/27 05:48:38;;;;;;;6.13;2.27;;;;;;;4.70;56.89;99844.31;5094805;28;20200;-85
2022/01/27 05:51:06;;;;;;;6.87;2.93;;;;;;;4.72;57.09;99838.22;5094531;28;20200;-84
2022/01/27 05:53:32;;;;;;;8.57;3.70;;;;;;;4.72;57.03;99832.16;5095036;28;20251;-85
2022/01/27 05:55:59;;;;;;;13.80;4.53;;;;;;;4.73;57.24;99836.47;5093520;28;20207;-85
2022/01/27 05:58:25;;;;;;;9.00;2.20;;;;;;;4.85;56.38;99837.13;5095060;28;20492;-85
2022/01/27 06:00:51;;;;;;;6.40;3.33;;;;;;;4.69;57.07;99834.84;5094415;28;20169;-84
2022/01/27 06:03:17;;;;;;;5.33;2.00;;;;;;;4.67;57.42;99834.00;5093323;28;20630;-84
2022/01/27 06:05:42;;;;;;;3.57;1.87;;;;;;;4.84;56.73;99831.97;5094293;28;20176;-85
2022/01/27 06:08:08;;;;;;;12.00;2.70;;;;;;;4.96;56.72;99839.50;5093537;28;20181;-84
2022/01/27 06:10:33;;;;;;;6.57;3.20;;;;;;;4.96;56.51;99842.97;5093243;28;20177;-84
2022/01/27 06:12:59;;;;;;;9.20;2.53;;;;;;;4.84;56.79;99848.41;5093346;28;20276;-84
2022/01/27 06:15:26;;;;;;;3.97;2.13;;;;;;;5.12;56.32;99846.13;5094423;28;20184;-84
2022/01/27 06:17:53;;;;;;;8.67;2.97;;;;;;;5.28;55.65;99850.16;5093110;28;20280;-85
2022/01/27 06:20:19;;;;;;;5.40;2.10;;;;;;;5.36;55.02;99850.84;5093926;28;20169;-84
2022/01/27 06:22:45;;;;;;;6.83;3.10;;;;;;;5.30;55.18;99853.56;5094283;28;20238;-84
2022/01/27 06:25:13;;;;;;;4.20;1.90;;;;;;;5.12;55.82;99861.72;5092976;28;20191;-84
2022/01/27 06:27:39;;;;;;;5.13;2.27;;;;;;;5.04;55.60;99865.34;5094558;28;20175;-85
2022/01/27 06:30:07;;;;;;;6.67;3.03;;;;;;;5.38;55.50;99869.00;5093341;28;20204;-84
2022/01/27 06:32:33;;;;;;;6.23;2.47;;;;;;;5.31;54.59;99873.50;5094085;28;20181;-84
2022/01/27 06:34:59;;;;;;;5.63;2.13;;;;;;;5.35;54.16;99874.25;5093473;28;20499;-84
2022/01/27 06:37:24;;;;;;;3.70;2.30;;;;;;;5.37;54.72;99877.72;5093876;28;20629;-84
2022/01/27 06:39:52;;;;;;;9.47;3.53;;;;;;;5.38;54.43;99880.25;5093708;28;20630;-84
2022/01/27 06:42:18;;;;;;;4.53;2.03;;;;;;;5.35;54.34;99884.66;5094257;28;20296;-84
2022/01/27 06:44:43;;;;;;;5.03;2.27;;;;;;;5.66;53.68;99874.53;5092787;28;20188;-84
2022/01/27 06:47:09;;;;;;;6.20;2.87;;;;;;;5.77;53.40;99873.38;5092693;28;20601;-84
2022/01/27 06:49:34;;;;;;;3.87;2.50;;;;;;;5.62;53.27;99875.44;5092975;28;20523;-84
2022/01/27 06:51:59;;;;;;;2.77;1.70;;;;;;;5.64;53.67;99873.66;5092719;28;20191;-84
2022/01/27 06:54:25;;;;;;;7.13;2.93;;;;;;;5.65;53.38;99878.00;5092517;28;20184;-84
2022/01/27 06:56:50;;;;;;;3.53;2.17;;;;;;;5.58;54.04;99887.69;5092659;28;20245;-84
2022/01/27 06:59:16;;;;;;;8.33;3.10;;;;;;;5.57;53.90;99892.03;5092478;28;20519;-84
2022/01/27 07:01:41;;;;;;;5.37;2.27;;;;;;;5.62;53.93;99891.06;5092610;28;20618;-84
2022/01/27 07:04:07;;;;;;;2.73;1.50;;;;;;;5.53;53.93;99886.88;5093453;28;20298;-84
2022/01/27 07:06:34;;;;;;;5.10;2.33;;;;;;;5.76;54.06;99876.03;5094048;28;20172;-84
2022/01/27 07:08:59;;;;;;;5.27;2.33;;;;;;;5.90;52.95;99881.81;5094035;28;20641;-84
2022/01/27 07:11:25;;;;;;;2.03;1.63;;;;;;;5.88;53.99;99883.59;5092673;28;20184;-85
2022/01/27 07:13:50;;;;;;;5.03;1.87;;;;;;;6.10;52.86;99890.91;5093805;28;20180;-84
2022/01/27 07:16:16;;;;;;;3.57;2.40;;;;;;;6.26;52.46;99883.59;5092363;28;20184;-84
2022/01/27 07:18:41;;;;;;;4.33;2.40;;;;;;;6.10;52.82;99884.84;5093288;28;20522;-85
2022/01/27 07:21:07;;;;;;;6.10;1.40;;;;;;;6.22;52.29;99881.94;5093375;28;20173;-84
2022/01/27 07:23:32;;;;;;;2.97;1.60;;;;;;;6.13;52.22;99896.03;5093252;28;20272;-85
2022/01/27 07:25:58;;;;;;;1.87;1.00;;;;;;;6.09;51.91;99891.78;5092207;28;20531;-86
2022/01/27 07:28:23;;;;;;;6.83;1.50;;;;;;;6.04;52.45;99893.66;5092292;28;20686;-85
2022/01/27 07:30:49;;;;;;;3.23;1.80;;;;;;;6.00;52.68;99896.34;5093147;28;20187;-85
2022/01/27 07:33:14;;;;;;;3.00;1.60;;;;;;;6.01;52.74;99892.84;5093544;28;20169;-84
2022/01/27 07:35:41;;;;;;;2.90;1.70;;;;;;;6.14;52.37;99894.28;5092579;28;20529;-84
2022/01/27 07:38:07;;;;;;;3.70;1.27;;;;;;;6.20;52.00;99901.97;5093249;28;20171;-84
2022/01/27 07:40:34;;;;;;;2.60;1.40;;;;;;;6.06;51.90;99907.47;5093109;28;20236;-83
2022/01/27 07:42:59;;;;;;;3.20;1.03;;;;;;;5.96;51.97;99898.16;5093541;28;20191;-85
2022/01/27 07:45:25;;;;;;;3.27;1.30;;;;;;;5.88;52.68;99907.88;5092030;28;20615;-84
2022/01/27 07:47:50;;;;;;;7.17;2.47;;;;;;;6.08;52.08;99903.06;5092102;28;20183;-84
2022/01/27 07:50:16;;;;;;;4.10;1.60;;;;;;;6.19;51.93;99895.03;5093297;28;20198;-84
2022/01/27 07:52:41;;;;;;;4.63;1.60;;;;;;;6.34;51.32;99894.66;5093314;28;20637;-84
2022/01/27 07:55:11;;;;;;;4.03;1.57;;;;;;;6.44;51.12;99892.72;5092029;28;20172;-84
2022/01/27 07:57:37;;;;;;;5.37;2.03;;;;;;;6.59;50.72;99901.03;5091851;28;20534;-84
2022/01/27 08:00:05;;;;;;;1.67;1.07;;;;;;;6.49;50.69;99899.53;5093171;28;20173;-84
2022/01/27 08:02:30;;;;;;;2.53;1.20;;;;;;;6.43;50.66;99896.22;5095462;28;20176;-84
2022/01/27 08:04:55;;;;;;;7.03;2.23;;;;;;;6.40;50.45;99898.88;5097486;28;20183;-84
2022/01/27 08:07:21;;;;;;;4.93;2.00;;;;;;;6.28;50.75;99897.44;5096814;28;20199;-85
2022/01/27 08:09:48;;;;;;;6.93;2.13;;;;;;;6.13;51.63;99903.00;5095944;28;20684;-85
2022/01/27 08:12:14;;;;;;;3.97;1.90;;;;;;;6.16;51.00;99898.56;5095705;28;20221;-86
2022/01/27 08:14:40;;;;;;;4.53;1.57;;;;;;;6.25;51.56;99904.44;5096033;28;20223;-86
2022/01/27 08:17:05;;;;;;;4.27;1.17;;;;;;;6.53;51.03;99903.75;5096808;28;20188;-85
2022/01/27 08:19:31;;;;;;;2.20;1.47;;;;;;;6.27;51.41;99921.75;5095896;28;20183;-87
2022/01/27 08:21:56;;;;;;;3.73;1.50;;;;;;;6.35;51.01;99912.00;5094620;28;20632;-87
2022/01/27 08:24:22;;;;;;;2.83;1.30;;;;;;;6.22;50.71;99918.41;5095060;28;20181;-84
2022/01/27 08:26:49;;;;;;;7.93;1.53;;;;;;;6.22;50.87;99918.41;5096200;28;20644;-85
2022/01/27 08:31:59;;;;;;;5.20;1.50;;;;;;;6.32;50.26;99921.63;5096398;28;20617;-84
2022/01/27 08:34:30;;;;;;;2.50;1.80;;;;;;;6.52;50.54;99917.69;5095249;28;20195;-84
2022/01/27 08:36:58;;;;;;;3.17;1.47;;;;;;;7.05;49.55;99918.94;5094772;28;20667;-85
2022/01/27 08:39:24;;;;;;;3.97;1.50;;;;;;;7.06;48.66;99914.59;5094933;28;20176;-86
2022/01/27 08:41:50;;;;;;;4.13;1.97;;;;;;;7.17;48.63;99918.66;5093784;28;20224;-87
2022/01/27 08:44:15;;;;;;;2.87;1.17;;;;;;;7.46;47.84;99919.59;5095196;28;20215;-91
2022/01/27 08:46:41;;;;;;;3.67;1.10;;;;;;;7.02;48.31;99915.59;5094835;28;20597;-85
2022/01/27 08:49:07;;;;;;;10.33;3.00;;;;;;;7.02;48.48;99913.84;5095817;28;20207;-86
2022/01/27 08:51:36;;;;;;;6.23;2.13;;;;;;;6.84;48.45;99918.66;5095217;28;20192;-92
2022/01/27 08:54:01;;;;;;;2.90;1.47;;;;;;;7.07;48.41;99913.72;5095648;28;20172;-91
2022/01/27 08:56:27;;;;;;;4.10;1.80;;;;;;;6.90;48.45;99910.66;5095580;28;20199;-85
2022/01/27 08:58:55;;;;;;;4.67;1.97;;;;;;;7.03;47.95;99917.28;5095665;28;20187;-86
2022/01/27 09:01:23;;;;;;;3.53;2.23;;;;;;;7.01;48.24;99914.72;5095171;28;20271;-86
2022/01/27 09:03:48;;;;;;;3.50;1.10;;;;;;;7.18;48.38;99911.69;5095855;28;20259;-87
2022/01/27 09:06:14;;;;;;;2.80;1.70;;;;;;;7.34;48.17;99910.34;5094611;28;20273;-88
2022/01/27 09:08:42;;;;;;;2.60;1.17;;;;;;;7.22;48.41;99913.31;5095688;28;20688;-87
2022/01/27 09:11:08;;;;;;;2.20;1.37;;;;;;;7.62;48.43;99916.53;5093296;28;20172;-85
2022/01/27 09:13:37;;;;;;;6.30;1.73;;;;;;;8.01;47.48;99904.09;5094936;28;20621;-90
2022/01/27 09:16:04;;;;;;;2.13;1.03;;;;;;;8.14;46.53;99909.78;5095247;28;20172;-86
2022/01/27 09:18:55;;;;;;;3.40;1.53;;;;;;;8.24;45.91;99911.22;5095459;28;20192;-89
2022/01/27 09:21:25;;;;;;;3.70;1.40;;;;;;;8.55;45.25;99899.78;5095218;28;20265;-85
2022/01/27 09:23:54;;;;;;;3.00;1.27;;;;;;;8.68;45.73;99902.84;5095318;28;20287;-89
2022/01/27 09:29:05;;;;;;;3.17;1.17;;;;;;;8.43;45.24;99902.81;5094803;28;20197;-86
2022/01/27 09:31:30;;;;;;;2.33;1.37;;;;;;;8.41;45.67;99899.34;5094929;28;20222;-86
2022/01/27 09:33:56;;;;;;;2.47;1.20;;;;;;;8.49;46.05;99901.75;5093991;28;20231;-87
2022/01/27 09:36:25;;;;;;;3.00;1.40;;;;;;;8.56;45.45;99905.88;5094952;28;20181;-92
2022/01/27 09:38:50;;;;;;;5.33;1.30;;;;;;;8.13;46.51;99905.47;5094820;28;20178;-85
2022/01/27 09:41:21;;;;;;;2.53;1.13;;;;;;;8.00;46.71;99898.00;5093866;28;20200;-90
2022/01/27 09:43:48;;;;;;;2.87;0.93;;;;;;;8.03;46.32;99895.31;5093698;28;20183;-87
2022/01/27 09:46:17;;;;;;;2.50;1.00;;;;;;;8.38;45.27;99882.94;5094535;28;20641;-86
2022/01/27 09:48:45;;;;;;;1.50;0.80;;;;;;;8.23;45.98;99879.00;5093909;28;20211;-86
2022/01/27 09:53:49;;;;;;;3.40;1.57;;;;;;;8.45;45.68;99879.22;5092774;28;20640;-88
2022/01/27 09:56:15;;;;;;;3.27;1.07;;;;;;;8.27;45.02;99882.44;5094734;28;20172;-85
2022/01/27 09:58:40;;;;;;;1.67;0.90;;;;;;;8.46;44.79;99875.72;5094643;28;20172;-85
2022/01/27 10:01:06;;;;;;;3.57;1.43;;;;;;;8.84;44.08;99879.66;5093265;28;20602;-86
2022/01/27 10:03:32;;;;;;;2.67;1.30;;;;;;;8.92;43.75;99875.03;5093123;28;20226;-85
2022/01/27 10:06:17;;;;;;;2.40;1.60;;;;;;;8.66;44.20;99868.09;5093226;28;20675;-87
2022/01/27 10:09:06;;;;;;;4.60;1.23;;;;;;;8.43;44.40;99870.59;5094736;28;20210;-93
2022/01/27 10:11:33;;;;;;;1.60;1.30;;;;;;;8.54;44.52;99873.72;5093876;28;20181;-87
2022/01/27 10:13:59;;;;;;;0.77;0.60;;;;;;;8.62;44.55;99871.72;5094211;28;20174;-89
2022/01/27 10:16:29;;;;;;;2.27;1.27;;;;;;;8.67;44.73;99864.56;5092958;28;20697;-86
2022/01/27 10:19:07;;;;;;;3.47;1.47;;;;;;;8.56;44.37;99866.69;5094070;28;20179;-86
2022/01/27 10:21:34;;;;;;;1.53;0.73;;;;;;;8.69;44.75;99862.75;5093814;28;20237;-86
2022/01/27 10:24:21;;;;;;;2.00;0.70;;;;;;;9.02;43.89;99861.59;5093014;28;20324;-86
2022/01/27 10:26:54;;;;;;;2.43;0.90;;;;;;;8.72;44.13;99854.81;5093759;28;20321;-86
2022/01/27 10:29:35;;;;;;;1.33;0.93;;;;;;;8.65;43.85;99861.13;5093735;28;20668;-85
2022/01/27 10:32:07;;;;;;;1.27;0.50;;;;;;;8.67;44.20;99855.88;5093855;28;20163;-89
2022/01/27 10:34:55;;;;;;;4.63;1.53;;;;;;;8.81;44.50;99857.09;5092868;28;20182;-87
2022/01/27 10:37:21;;;;;;;1.53;0.87;;;;;;;8.65;44.42;99846.31;5092683;28;20243;-87
2022/01/27 10:39:47;;;;;;;3.03;1.70;;;;;;;8.83;44.50;99850.06;5093470;28;20168;-89
2022/01/27 10:42:13;;;;;;;2.47;1.40;;;;;;;8.80;44.27;99837.13;5093759;28;20255;-86
2022/01/27 10:44:46;;;;;;;2.67;1.30;;;;;;;8.97;44.08;99837.38;5093646;28;20258;-88
2022/01/27 10:47:21;;;;;;;3.90;1.20;;;;;;;9.16;43.31;99833.22;5093635;28;20620;-86
2022/01/27 10:49:51;;;;;;;2.73;1.17;;;;;;;9.43;42.14;99826.13;5093278;28;20194;-86
2022/01/27 10:52:37;;;;;;;2.80;1.30;;;;;;;9.03;42.63;99836.31;5092319;28;20188;-87
2022/01/27 10:55:11;;;;;;;2.67;1.00;;;;;;;9.42;43.81;99819.19;5092674;28;20531;-86
2022/01/27 10:57:36;;;;;;;3.97;1.37;;;;;;;9.55;42.17;99823.06;5093300;28;20170;-86
2022/01/27 11:00:08;;;;;;;2.10;1.00;;;;;;;9.62;41.51;99818.41;5092449;28;20643;-89
2022/01/27 11:02:56;;;;;;;1.80;0.97;;;;;;;9.38;41.37;99811.50;5093581;28;20170;-86
2022/01/27 11:05:34;;;;;;;1.93;1.20;;;;;;;9.34;42.44;99815.13;5092952;28;20169;-87
2022/01/27 11:08:00;;;;;;;1.20;0.80;;;;;;;9.46;42.08;99805.06;5092469;28;20211;-85
2022/01/27 11:10:26;;;;;;;2.47;0.93;;;;;;;9.69;41.11;99817.31;5093166;28;20231;-87
2022/01/27 11:12:52;;;;;;;2.47;1.00;;;;;;;9.41;41.30;99814.03;5093240;28;20174;-86
2022/01/27 11:15:20;;;;;;;2.70;1.13;;;;;;;9.34;40.86;99799.44;5093213;28;20258;-86
2022/01/27 11:17:48;;;;;;;3.37;1.40;;;;;;;9.42;41.20;99797.38;5093109;28;20175;-86
2022/01/27 11:20:26;;;;;;;3.53;1.47;;;;;;;9.42;41.48;99798.25;5093153;28;20175;-86
2022/01/27 11:28:04;;;;;;;2.13;0.70;;;;;;;9.24;41.76;99806.78;5093119;28;20247;-87
2022/01/27 11:30:58;;;;;;;3.73;1.30;;;;;;;9.15;42.60;99807.97;5093283;28;20209;-86
2022/01/27 11:33:34;;;;;;;1.97;1.07;;;;;;;9.02;42.44;99811.91;5093083;28;20165;-86
2022/01/27 11:36:07;;;;;;;1.20;0.90;;;;;;;9.11;42.40;99813.38;5095972;28;20554;-87
2022/01/27 11:38:33;;;;;;;3.67;0.97;;;;;;;8.89;41.96;99810.66;5097363;28;20649;-86
2022/01/27 11:40:58;;;;;;;3.60;1.20;;;;;;;8.82;42.09;99803.06;5097372;28;20280;-86
2022/01/27 11:43:33;;;;;;;2.10;1.03;;;;;;;8.84;41.90;99809.09;5097325;28;20176;-92
2022/01/27 11:46:18;;;;;;;1.60;0.90;;;;;;;9.00;42.25;99803.28;5097332;28;20167;-85
2022/01/27 11:48:44;;;;;;;1.20;1.00;;;;;;;9.06;41.50;99807.44;5096858;28;20697;-86
2022/01/27 11:51:13;;;;;;;2.47;1.27;;;;;;;9.06;41.33;99803.06;5097139;28;20214;-85
2022/01/27 11:53:49;;;;;;;3.87;1.00;;;;;;;9.29;41.70;99789.16;5096854;28;20180;-84
2022/01/27 11:56:23;;;;;;;2.67;1.27;;;;;;;9.32;41.43;99790.78;5097095;28;20185;-85
2022/01/27 11:59:01;;;;;;;1.37;1.07;;;;;;;8.95;41.83;99796.50;5097116;28;20175;-92
2022/01/27 12:01:34;;;;;;;7.33;1.27;;;;;;;8.92;42.53;99789.63;5094555;28;20291;-87
2022/01/27 12:04:24;;;;;;;2.93;1.10;;;;;;;8.75;42.54;99791.13;5097100;28;20153;-88
2022/01/27 12:06:52;;;;;;;4.13;1.73;;;;;;;9.03;41.96;99776.16;5096932;28;20166;-87
2022/01/27 12:09:18;;;;;;;1.43;0.90;;;;;;;9.00;41.72;99779.75;5096516;28;20199;-86
2022/01/27 12:11:55;;;;;;;5.00;1.37;;;;;;;8.99;41.60;99782.41;5096550;28;20507;-86
2022/01/27 12:14:33;;;;;;;8.00;2.13;;;;;;;9.38;41.06;99769.66;5095856;28;20588;-85
2022/01/27 12:17:12;;;;;;;4.60;1.13;;;;;;;9.40;40.94;99771.28;5095488;28;20170;-86
2022/01/27 12:19:53;;;;;;;2.80;1.37;;;;;;;9.23;41.86;99769.28;5095400;28;20173;-86
2022/01/27 12:22:25;;;;;;;1.23;0.83;;;;;;;9.21;41.72;99770.25;5095332;28;20182;-85
2022/01/27 12:25:02;;;;;;;3.30;1.67;;;;;;;9.35;41.47;99752.31;5095397;28;20293;-86
2022/01/27 12:27:30;;;;;;;2.03;1.03;;;;;;;9.05;41.40;99759.50;5096131;28;20176;-87
2022/01/27 12:29:57;;;;;;;3.60;1.13;;;;;;;9.21;41.09;99763.28;5095185;28;20230;-86
2022/01/27 12:32:29;;;;;;;2.03;1.47;;;;;;;9.42;40.45;99759.00;5096124;28;20554;-87
2022/01/27 12:34:56;;;;;;;1.33;0.83;;;;;;;9.34;40.87;99754.97;5096108;28;20159;-85
2022/01/27 12:37:23;;;;;;;3.80;1.70;;;;;;;9.36;41.77;99756.59;5096044;28;20178;-85
2022/01/27 12:39:55;;;;;;;5.00;1.50;;;;;;;9.21;41.51;99757.19;5095001;28;20236;-85
2022/01/27 12:42:26;;;;;;;3.87;1.43;;;;;;;9.22;40.94;99745.81;5095941;28;20614;-85
2022/01/27 12:45:03;;;;;;;1.97;1.13;;;;;;;9.20;40.90;99748.47;5095938;28;20242;-86